Aviation Digital Data Service (ADDS)

Output produced by METARs form (0013 UTC 29 August 2015)
found at http://www.aviationweather.gov/adds/metars/
 
KGED 282354Z AUTO 17003KT 10SM CLR 22/13 A3017 RMK AO2 SLP215 T02170133 10283 20211 53004